createdAt,value
2022-08-21T00:00:14.622Z,22.98
2022-08-21T00:05:41.220Z,22.96
2022-08-21T00:10:45.629Z,22.92
2022-08-21T00:15:49.939Z,22.89
2022-08-21T00:20:53.563Z,22.90
2022-08-21T00:25:56.517Z,22.93
2022-08-21T00:30:59.782Z,22.93
2022-08-21T00:36:03.509Z,22.93
2022-08-21T00:41:32.229Z,22.88
2022-08-21T00:46:32.881Z,22.83
2022-08-21T00:51:51.242Z,22.85
2022-08-21T00:57:00.780Z,22.85
2022-08-21T01:02:06.452Z,22.81
2022-08-21T01:07:10.009Z,22.80
2022-08-21T01:12:13.835Z,22.76
2022-08-21T01:17:18.806Z,22.77
2022-08-21T01:22:21.673Z,22.78
2022-08-21T01:27:24.548Z,22.80
2022-08-21T01:32:27.744Z,22.78
2022-08-21T01:37:30.817Z,22.77
2022-08-21T01:42:35.024Z,22.73
2022-08-21T01:47:38.675Z,22.67
2022-08-21T01:52:41.705Z,22.65
2022-08-21T01:57:46.113Z,22.64
2022-08-21T02:02:49.000Z,22.64
2022-08-21T02:07:54.118Z,22.64
2022-08-21T02:12:58.044Z,22.62
2022-08-21T02:18:03.058Z,22.61
2022-08-21T02:23:07.403Z,22.58
2022-08-21T02:28:13.681Z,22.59
2022-08-21T02:33:17.152Z,22.58
2022-08-21T02:38:23.784Z,22.57
2022-08-21T02:43:28.309Z,22.53
2022-08-21T02:48:33.080Z,22.49
2022-08-21T02:53:36.852Z,22.50
2022-08-21T02:58:46.483Z,22.51
2022-08-21T03:03:52.199Z,22.54
2022-08-21T03:08:55.327Z,22.56
2022-08-21T03:13:58.201Z,22.54
2022-08-21T03:19:01.043Z,22.53
2022-08-21T03:24:05.341Z,22.53
2022-08-21T03:29:09.852Z,22.58
2022-08-21T03:34:12.781Z,22.61
2022-08-21T03:39:17.706Z,22.59
2022-08-21T03:44:20.837Z,22.56
2022-08-21T03:49:23.857Z,22.53
2022-08-21T03:54:28.829Z,22.55
2022-08-21T03:59:31.909Z,22.56
2022-08-21T04:04:35.318Z,22.57
2022-08-21T04:09:38.592Z,22.59
2022-08-21T04:14:42.898Z,22.58
2022-08-21T04:19:49.317Z,22.55
2022-08-21T04:24:54.584Z,22.59
2022-08-21T04:29:57.652Z,22.62
2022-08-21T04:35:02.470Z,22.63
2022-08-21T04:40:06.656Z,22.61
2022-08-21T04:45:10.826Z,22.61
2022-08-21T04:50:13.726Z,22.61
2022-08-21T04:55:20.187Z,22.66
2022-08-21T05:00:25.567Z,22.73
2022-08-21T05:05:30.375Z,22.77
2022-08-21T05:10:33.749Z,22.76
2022-08-21T05:15:36.604Z,22.74
2022-08-21T05:20:39.660Z,22.71
2022-08-21T05:25:42.757Z,22.73
2022-08-21T05:30:46.092Z,22.76
2022-08-21T05:35:53.011Z,22.82
2022-08-21T05:40:56.291Z,22.87
2022-08-21T05:45:59.486Z,22.93
2022-08-21T05:51:07.852Z,22.97
2022-08-21T05:56:12.356Z,23.05
2022-08-21T06:01:16.937Z,23.14
2022-08-21T06:06:20.046Z,23.22
2022-08-21T06:11:26.995Z,23.27
2022-08-21T06:16:31.879Z,23.27
2022-08-21T06:21:34.808Z,23.27
2022-08-21T06:26:38.132Z,23.33
2022-08-21T06:31:41.969Z,23.37
2022-08-21T06:36:45.376Z,23.41
2022-08-21T06:41:48.805Z,23.44
2022-08-21T06:46:51.712Z,23.45
2022-08-21T06:51:55.132Z,23.50
2022-08-21T06:56:58.140Z,23.59
2022-08-21T07:02:01.686Z,23.70
2022-08-21T07:07:04.714Z,23.75
2022-08-21T07:12:08.170Z,23.78
2022-08-21T07:17:11.150Z,23.79
2022-08-21T07:22:19.224Z,23.78
2022-08-21T07:27:22.498Z,23.81
2022-08-21T07:32:25.793Z,23.84
2022-08-21T07:37:28.760Z,23.87
2022-08-21T07:42:33.125Z,23.92
2022-08-21T07:47:42.571Z,23.93
2022-08-21T07:52:46.807Z,23.92
2022-08-21T07:57:50.418Z,23.98
2022-08-21T08:02:55.193Z,24.05
2022-08-21T08:07:58.262Z,24.10
2022-08-21T08:13:01.624Z,24.15
2022-08-21T08:18:05.217Z,24.23
2022-08-21T08:23:11.677Z,24.33
2022-08-21T08:28:17.154Z,24.39
2022-08-21T08:33:21.049Z,24.46
2022-08-21T08:38:26.294Z,24.52
2022-08-21T08:43:31.165Z,24.60
2022-08-21T08:48:36.855Z,24.69
2022-08-21T08:54:03.972Z,24.73
2022-08-21T08:59:27.701Z,24.81
2022-08-21T09:04:31.471Z,24.92
2022-08-21T09:09:52.693Z,25.04
2022-08-21T09:15:13.567Z,25.16
2022-08-21T09:20:45.364Z,25.29
2022-08-21T09:26:05.520Z,25.42
2022-08-21T09:31:17.057Z,25.55
2022-08-21T09:36:42.196Z,25.69
2022-08-21T09:41:45.164Z,25.86
2022-08-21T09:46:53.625Z,25.96
2022-08-21T09:51:59.652Z,26.04
2022-08-21T09:57:36.161Z,26.17
2022-08-21T10:02:39.405Z,26.29
2022-08-21T10:07:42.530Z,26.26
2022-08-21T10:12:59.016Z,26.31
2022-08-21T10:18:21.312Z,26.44
2022-08-21T10:23:42.633Z,26.52
2022-08-21T10:29:12.612Z,26.60
2022-08-21T10:34:53.382Z,26.66
2022-08-21T10:40:32.892Z,26.70
2022-08-21T10:46:11.369Z,26.71
2022-08-21T10:51:33.588Z,26.72
2022-08-21T10:56:41.616Z,26.79
2022-08-21T11:02:26.732Z,26.95
2022-08-21T11:07:45.035Z,27.05
2022-08-21T11:12:54.882Z,27.14
2022-08-21T11:18:27.482Z,27.13
2022-08-21T11:23:39.635Z,27.12
2022-08-21T11:29:02.178Z,27.16
2022-08-21T11:34:13.883Z,27.06
2022-08-21T11:39:26.548Z,27.03
2022-08-21T11:44:51.819Z,26.93
2022-08-21T11:50:20.603Z,26.76
2022-08-21T11:55:58.855Z,26.55
2022-08-21T12:01:31.962Z,26.31
2022-08-21T12:06:41.881Z,26.03
2022-08-21T12:11:49.201Z,25.91
2022-08-21T12:16:52.970Z,25.87
2022-08-21T12:21:58.512Z,25.93
2022-08-21T12:27:29.585Z,25.86
2022-08-21T12:32:47.642Z,25.90
2022-08-21T12:37:53.583Z,25.81
2022-08-21T12:43:00.515Z,25.71
2022-08-21T12:48:25.018Z,25.61
2022-08-21T12:53:37.208Z,25.56
2022-08-21T12:58:47.452Z,25.47
2022-08-21T13:04:00.255Z,25.33
2022-08-21T13:09:13.905Z,25.21
2022-08-21T13:14:30.221Z,25.13
2022-08-21T13:19:35.241Z,25.07
2022-08-21T13:24:42.956Z,25.06
2022-08-21T13:29:53.248Z,25.12
2022-08-21T13:34:59.807Z,25.22
2022-08-21T13:40:03.120Z,25.23
2022-08-21T13:45:15.012Z,25.18
2022-08-21T13:50:21.908Z,25.14
2022-08-21T13:55:26.086Z,25.07
2022-08-21T14:00:31.464Z,24.90
2022-08-21T14:05:38.979Z,24.78
2022-08-21T14:10:48.605Z,24.65
2022-08-21T14:16:02.351Z,24.54
2022-08-21T14:21:10.261Z,24.43
2022-08-21T14:26:13.289Z,24.34
2022-08-21T14:31:19.751Z,24.36
2022-08-21T14:36:23.523Z,24.38
2022-08-21T14:41:29.106Z,24.36
2022-08-21T14:46:33.190Z,24.34
2022-08-21T14:51:36.604Z,24.33
2022-08-21T14:56:47.643Z,24.34
2022-08-21T15:01:51.023Z,24.35
2022-08-21T15:06:54.406Z,24.37
2022-08-21T15:12:01.383Z,24.46
2022-08-21T15:17:06.772Z,24.52
2022-08-21T15:22:15.505Z,24.57
2022-08-21T15:27:22.121Z,24.57
2022-08-21T15:32:29.941Z,24.54
2022-08-21T15:37:33.455Z,24.50
2022-08-21T15:42:36.716Z,24.45
2022-08-21T15:47:44.226Z,24.28
2022-08-21T15:52:47.554Z,24.14
2022-08-21T15:57:57.247Z,23.94
2022-08-21T16:03:05.430Z,23.58
2022-08-21T16:08:08.377Z,23.12
2022-08-21T16:13:21.313Z,22.73
2022-08-21T16:18:24.529Z,22.31
2022-08-21T16:23:27.665Z,21.92
2022-08-21T16:28:32.428Z,21.61
2022-08-21T16:33:39.020Z,21.41
2022-08-21T16:38:44.324Z,21.31
2022-08-21T16:43:49.108Z,21.29
2022-08-21T16:48:52.053Z,21.29
2022-08-21T16:53:54.986Z,21.27
2022-08-21T16:58:59.251Z,21.22
2022-08-21T17:04:02.326Z,21.17
2022-08-21T17:09:05.515Z,21.15
2022-08-21T17:14:12.499Z,21.15
2022-08-21T17:19:16.462Z,21.10
2022-08-21T17:24:19.440Z,21.09
2022-08-21T17:29:27.255Z,21.11
2022-08-21T17:34:31.157Z,21.12
2022-08-21T17:39:36.157Z,21.20
2022-08-21T17:44:44.719Z,21.39
2022-08-21T17:49:47.913Z,21.65
2022-08-21T17:54:50.950Z,21.87
2022-08-21T17:59:58.343Z,21.99
2022-08-21T18:05:02.664Z,22.10
2022-08-21T18:10:08.739Z,22.21
2022-08-21T18:15:17.947Z,22.25
2022-08-21T18:20:23.126Z,22.18
2022-08-21T18:25:26.401Z,21.97
2022-08-21T18:30:29.355Z,21.79
2022-08-21T18:35:32.548Z,21.68
2022-08-21T18:40:39.021Z,21.59
2022-08-21T18:45:42.418Z,21.55
2022-08-21T18:50:47.896Z,21.51
2022-08-21T18:55:51.456Z,21.42
2022-08-21T19:00:55.670Z,21.34
2022-08-21T19:05:58.612Z,21.29
2022-08-21T19:11:02.885Z,21.25
2022-08-21T19:16:09.601Z,21.15
2022-08-21T19:21:12.632Z,21.08
2022-08-21T19:26:16.773Z,21.00
2022-08-21T19:31:41.738Z,20.93
2022-08-21T19:36:45.363Z,20.86
2022-08-21T19:41:52.961Z,20.83
2022-08-21T19:46:58.505Z,20.74
2022-08-21T19:52:02.452Z,20.66
2022-08-21T19:57:18.989Z,20.58
2022-08-21T20:02:21.961Z,20.52
2022-08-21T20:07:26.303Z,20.48
2022-08-21T20:12:30.424Z,20.44
2022-08-21T20:17:33.341Z,20.40
2022-08-21T20:22:36.723Z,20.38
2022-08-21T20:27:41.558Z,20.33
2022-08-21T20:32:44.390Z,20.30
2022-08-21T20:37:47.558Z,20.26
2022-08-21T20:43:03.944Z,20.28
2022-08-21T20:48:23.579Z,20.26
2022-08-21T20:59:10.791Z,20.14
2022-08-21T21:04:54.231Z,20.07
2022-08-21T21:09:58.904Z,20.09
2022-08-21T21:21:03.717Z,20.03
2022-08-21T21:26:48.927Z,20.01
2022-08-21T21:31:54.301Z,20.07
2022-08-21T21:37:05.751Z,20.15
2022-08-21T21:42:30.147Z,20.13
2022-08-21T21:47:43.875Z,20.11
2022-08-21T21:53:12.668Z,20.10
2022-08-21T21:58:40.201Z,20.12
2022-08-21T22:03:57.460Z,20.10
2022-08-21T22:09:18.349Z,20.08
2022-08-21T22:14:22.698Z,20.05
2022-08-21T22:19:34.930Z,20.05
2022-08-21T22:24:42.843Z,20.05
2022-08-21T22:29:51.267Z,20.05
2022-08-21T22:35:09.590Z,20.03
2022-08-21T22:40:20.294Z,20.05
2022-08-21T22:45:23.306Z,20.06
2022-08-21T22:50:27.041Z,20.03
2022-08-21T22:55:44.034Z,20.04
2022-08-21T23:01:22.631Z,20.05
2022-08-21T23:06:34.892Z,20.02
2022-08-21T23:11:40.758Z,20.00
2022-08-21T23:17:16.111Z,20.00
2022-08-21T23:22:21.808Z,20.04
2022-08-21T23:27:48.564Z,20.01
2022-08-21T23:33:21.919Z,19.97
2022-08-21T23:38:43.701Z,19.95
2022-08-21T23:44:24.710Z,19.95
2022-08-21T23:49:48.539Z,19.93
2022-08-21T23:54:55.621Z,19.90
